createdAt,value
2023-06-18T00:00:14.339Z,68.04
2023-06-18T00:02:40.945Z,68.04
2023-06-18T00:05:07.659Z,67.43
2023-06-18T00:07:34.135Z,67.04
2023-06-18T00:10:04.096Z,67.37
2023-06-18T00:12:30.808Z,66.97
2023-06-18T00:14:57.372Z,67.05
2023-06-18T00:17:24.137Z,66.70
2023-06-18T00:19:50.673Z,66.55
2023-06-18T00:22:17.103Z,66.14
2023-06-18T00:24:43.537Z,65.98
2023-06-18T00:27:10.395Z,65.88
2023-06-18T00:29:37.161Z,66.28
2023-06-18T00:32:04.860Z,65.95
2023-06-18T00:34:33.952Z,65.41
2023-06-18T00:37:01.502Z,65.71
2023-06-18T00:39:28.308Z,65.75
2023-06-18T00:41:55.745Z,66.87
2023-06-18T00:44:22.269Z,67.59
2023-06-18T00:46:50.335Z,67.72
2023-06-18T00:49:19.612Z,67.84
2023-06-18T00:51:47.276Z,67.76
2023-06-18T00:54:15.943Z,67.76
2023-06-18T00:56:51.804Z,67.83
2023-06-18T00:59:23.473Z,67.81
2023-06-18T01:01:54.315Z,67.68
2023-06-18T01:04:23.197Z,67.19
2023-06-18T01:06:52.888Z,66.79
2023-06-18T01:09:25.380Z,66.77
2023-06-18T01:11:52.705Z,66.36
2023-06-18T01:14:22.705Z,66.58
2023-06-18T01:16:54.173Z,65.60
2023-06-18T01:19:48.528Z,65.72
2023-06-18T01:22:27.160Z,65.62
2023-06-18T01:25:03.461Z,65.42
2023-06-18T01:27:34.578Z,65.12
2023-06-18T01:30:05.224Z,65.17
2023-06-18T01:32:32.145Z,64.91
2023-06-18T01:34:58.599Z,64.41
2023-06-18T01:38:06.425Z,64.66
2023-06-18T01:40:45.025Z,64.84
2023-06-18T01:43:18.243Z,64.96
2023-06-18T01:45:51.413Z,65.11
2023-06-18T01:48:22.250Z,65.09
2023-06-18T01:50:50.748Z,65.13
2023-06-18T01:53:19.094Z,65.63
2023-06-18T01:55:47.502Z,65.72
2023-06-18T01:58:16.246Z,65.45
2023-06-18T02:00:43.141Z,65.45
2023-06-18T02:03:09.748Z,65.78
2023-06-18T02:05:36.798Z,65.97
2023-06-18T02:08:03.293Z,66.52
2023-06-18T02:10:29.724Z,66.94
2023-06-18T02:12:56.147Z,66.96
2023-06-18T02:15:22.645Z,67.12
2023-06-18T02:17:49.252Z,67.07
2023-06-18T02:20:15.893Z,66.80
2023-06-18T02:22:42.371Z,66.78
2023-06-18T02:25:09.257Z,66.76
2023-06-18T02:27:35.748Z,67.12
2023-06-18T02:30:06.146Z,66.91
2023-06-18T02:32:37.625Z,67.07
2023-06-18T02:35:05.315Z,67.13
2023-06-18T02:37:32.394Z,67.31
2023-06-18T02:39:58.917Z,67.28
2023-06-18T02:42:25.329Z,67.23
2023-06-18T02:44:51.827Z,67.58
2023-06-18T02:47:18.306Z,67.35
2023-06-18T02:49:44.841Z,67.72
2023-06-18T02:52:11.276Z,67.76
2023-06-18T02:54:38.216Z,68.03
2023-06-18T02:57:05.160Z,67.98
2023-06-18T02:59:31.841Z,68.04
2023-06-18T03:01:58.460Z,68.38
2023-06-18T03:04:24.993Z,68.26
2023-06-18T03:06:52.137Z,68.51
2023-06-18T03:09:18.637Z,68.43
2023-06-18T03:11:45.093Z,68.86
2023-06-18T03:14:12.453Z,68.61
2023-06-18T03:16:38.951Z,68.78
2023-06-18T03:19:05.622Z,68.70
2023-06-18T03:21:34.311Z,69.04
2023-06-18T03:24:02.900Z,69.23
2023-06-18T03:26:30.177Z,69.38
2023-06-18T03:28:57.706Z,69.58
2023-06-18T03:31:25.153Z,69.49
2023-06-18T03:33:53.740Z,69.78
2023-06-18T03:36:20.500Z,69.72
2023-06-18T03:38:48.357Z,69.79
2023-06-18T03:41:15.433Z,69.85
2023-06-18T03:43:42.574Z,69.41
2023-06-18T03:46:09.111Z,69.85
2023-06-18T03:48:37.528Z,69.88
2023-06-18T03:51:05.350Z,70.04
2023-06-18T03:53:38.207Z,69.80
2023-06-18T03:56:05.375Z,69.88
2023-06-18T03:58:31.805Z,69.95
2023-06-18T04:00:58.237Z,70.43
2023-06-18T04:03:24.933Z,70.31
2023-06-18T04:05:53.006Z,71.05
2023-06-18T04:08:19.450Z,71.21
2023-06-18T04:10:46.826Z,70.83
2023-06-18T04:13:16.487Z,70.54
2023-06-18T04:15:44.302Z,70.33
2023-06-18T04:18:11.711Z,70.59
2023-06-18T04:20:39.313Z,70.28
2023-06-18T04:23:07.407Z,70.18
2023-06-18T04:25:34.148Z,70.42
2023-06-18T04:28:01.747Z,70.46
2023-06-18T04:30:28.398Z,70.45
2023-06-18T04:32:55.474Z,70.17
2023-06-18T04:35:22.423Z,71.27
2023-06-18T04:37:50.546Z,71.63
2023-06-18T04:40:17.227Z,72.19
2023-06-18T04:42:46.825Z,71.85
2023-06-18T04:45:19.083Z,71.76
2023-06-18T04:47:47.593Z,71.79
2023-06-18T04:50:15.667Z,71.76
2023-06-18T04:52:46.408Z,71.46
2023-06-18T04:55:13.067Z,71.92
2023-06-18T04:57:41.443Z,71.88
2023-06-18T05:00:09.911Z,72.09
2023-06-18T05:02:39.093Z,71.61
2023-06-18T05:05:06.188Z,71.53
2023-06-18T05:07:32.756Z,71.57
2023-06-18T05:09:59.225Z,72.00
2023-06-18T05:12:26.104Z,71.69
2023-06-18T05:14:55.080Z,71.54
2023-06-18T05:17:22.820Z,71.07
2023-06-18T05:19:49.612Z,68.80
2023-06-18T05:22:16.382Z,68.37
2023-06-18T05:24:42.948Z,68.49
2023-06-18T05:27:09.508Z,69.13
2023-06-18T05:29:37.870Z,68.81
2023-06-18T05:32:04.661Z,67.75
2023-06-18T05:34:31.926Z,66.69
2023-06-18T05:36:58.351Z,65.21
2023-06-18T05:39:25.167Z,62.50
2023-06-18T05:41:52.286Z,59.75
2023-06-18T05:44:19.994Z,58.09
2023-06-18T05:46:46.806Z,56.22
2023-06-18T05:49:14.244Z,55.31
2023-06-18T05:51:41.125Z,54.10
2023-06-18T05:54:07.967Z,53.10
2023-06-18T05:56:34.417Z,53.28
2023-06-18T05:59:01.074Z,54.59
2023-06-18T06:01:34.316Z,56.12
2023-06-18T06:04:02.578Z,55.69
2023-06-18T06:06:29.465Z,53.73
2023-06-18T06:08:56.516Z,50.51
2023-06-18T06:11:23.833Z,50.49
2023-06-18T06:13:50.674Z,50.82
2023-06-18T06:16:17.245Z,51.52
2023-06-18T06:18:43.779Z,51.34
2023-06-18T06:21:12.146Z,52.33
2023-06-18T06:23:38.861Z,51.99
2023-06-18T06:26:05.871Z,51.85
2023-06-18T06:28:32.659Z,51.22
2023-06-18T06:30:59.083Z,50.12
2023-06-18T06:33:26.141Z,49.27
2023-06-18T06:35:53.385Z,48.78
2023-06-18T06:38:21.255Z,47.58
2023-06-18T06:40:48.234Z,46.63
2023-06-18T06:43:14.698Z,45.69
2023-06-18T06:46:10.391Z,45.02
2023-06-18T06:49:08.349Z,45.28
2023-06-18T06:51:55.542Z,43.81
2023-06-18T06:54:22.937Z,43.72
2023-06-18T06:56:49.790Z,43.10
2023-06-18T06:59:16.550Z,43.47
2023-06-18T07:01:44.410Z,44.24
2023-06-18T07:04:11.742Z,43.25
2023-06-18T07:06:39.941Z,42.63
2023-06-18T07:09:07.897Z,43.04
2023-06-18T07:11:35.007Z,44.19
2023-06-18T07:14:01.462Z,43.61
2023-06-18T07:16:27.988Z,43.59
2023-06-18T07:18:54.675Z,43.52
2023-06-18T07:21:21.149Z,42.92
2023-06-18T07:23:47.597Z,42.88
2023-06-18T07:26:14.046Z,42.75
2023-06-18T07:28:40.777Z,43.66
2023-06-18T07:31:07.212Z,44.32
2023-06-18T07:33:33.667Z,43.83
2023-06-18T07:36:00.128Z,44.05
2023-06-18T07:38:26.626Z,44.09
2023-06-18T07:40:53.159Z,44.76
2023-06-18T07:43:19.790Z,45.31
2023-06-18T07:45:46.229Z,45.09
2023-06-18T07:48:12.682Z,44.60
2023-06-18T07:50:39.098Z,45.42
2023-06-18T07:53:05.701Z,44.54
2023-06-18T07:55:32.458Z,45.20
2023-06-18T07:57:58.894Z,44.16
2023-06-18T08:00:25.750Z,43.92
2023-06-18T08:02:52.952Z,44.77
2023-06-18T08:05:19.495Z,44.62
2023-06-18T08:07:45.967Z,43.93
2023-06-18T08:10:12.455Z,43.54
2023-06-18T08:12:38.879Z,44.02
2023-06-18T08:15:06.027Z,43.84
2023-06-18T08:17:32.459Z,42.94
2023-06-18T08:19:58.929Z,44.33
2023-06-18T08:22:26.146Z,43.39
2023-06-18T08:24:52.643Z,42.82
2023-06-18T08:27:19.118Z,42.13
2023-06-18T08:29:45.649Z,42.32
2023-06-18T08:32:12.156Z,42.67
2023-06-18T08:34:43.312Z,42.79
2023-06-18T08:37:13.571Z,43.40
2023-06-18T08:39:40.078Z,41.95
2023-06-18T08:42:07.533Z,41.89
2023-06-18T08:44:35.335Z,41.67
2023-06-18T08:47:04.504Z,40.97
2023-06-18T08:49:32.463Z,40.87
2023-06-18T08:52:01.755Z,40.26
2023-06-18T08:54:34.369Z,40.48
2023-06-18T08:57:09.901Z,39.34
2023-06-18T08:59:37.884Z,39.91
2023-06-18T09:02:06.266Z,39.06
2023-06-18T09:04:36.846Z,39.14
2023-06-18T09:07:04.086Z,38.22
2023-06-18T09:09:30.831Z,38.57
2023-06-18T09:11:58.290Z,38.19
2023-06-18T09:14:25.872Z,38.94
2023-06-18T09:16:55.540Z,38.00
2023-06-18T09:19:22.070Z,36.89
2023-06-18T09:21:48.709Z,36.56
2023-06-18T09:24:20.698Z,38.14
2023-06-18T09:27:04.385Z,37.54
2023-06-18T09:29:33.809Z,37.36
2023-06-18T09:32:07.474Z,36.15
2023-06-18T09:34:34.096Z,35.44
2023-06-18T09:37:00.738Z,35.68
2023-06-18T09:39:27.552Z,37.29
2023-06-18T09:41:56.440Z,35.10
2023-06-18T09:44:23.930Z,34.91
2023-06-18T09:46:56.653Z,34.92
2023-06-18T09:49:24.404Z,33.82
2023-06-18T09:51:52.386Z,34.11
2023-06-18T09:54:19.648Z,33.81
2023-06-18T09:57:00.232Z,34.48
2023-06-18T09:59:28.116Z,33.37
2023-06-18T10:01:56.386Z,33.51
2023-06-18T10:04:23.306Z,33.27
2023-06-18T10:06:57.971Z,34.43
2023-06-18T10:09:32.866Z,33.82
2023-06-18T10:12:02.684Z,33.54
2023-06-18T10:14:30.652Z,33.82
2023-06-18T10:17:10.786Z,34.02
2023-06-18T10:19:48.217Z,34.82
2023-06-18T10:22:18.247Z,33.85
2023-06-18T10:24:57.539Z,33.01
2023-06-18T10:27:25.435Z,33.38
2023-06-18T10:29:52.090Z,34.03
2023-06-18T10:32:18.933Z,33.84
2023-06-18T10:34:46.205Z,34.08
2023-06-18T10:37:14.778Z,33.52
2023-06-18T10:39:41.774Z,34.50
2023-06-18T10:42:13.512Z,34.85
2023-06-18T10:44:49.077Z,34.57
2023-06-18T10:47:20.146Z,35.11
2023-06-18T10:50:01.884Z,34.95
2023-06-18T10:52:32.712Z,34.61
2023-06-18T10:55:11.173Z,36.03
2023-06-18T10:57:39.590Z,35.42
2023-06-18T11:00:16.662Z,35.15
2023-06-18T11:02:43.944Z,35.30
2023-06-18T11:05:17.480Z,36.01
2023-06-18T11:07:44.313Z,36.62
2023-06-18T11:10:11.142Z,36.52
2023-06-18T11:12:39.125Z,36.81
2023-06-18T11:15:16.211Z,37.84
2023-06-18T11:17:45.294Z,38.20
2023-06-18T11:20:13.037Z,38.64
2023-06-18T11:22:41.999Z,39.64
2023-06-18T11:25:10.917Z,39.72
2023-06-18T11:27:43.109Z,40.79
2023-06-18T11:30:14.475Z,42.02
2023-06-18T11:32:41.985Z,42.45
2023-06-18T11:35:10.224Z,41.03
2023-06-18T11:37:39.299Z,41.22
2023-06-18T11:40:09.726Z,41.56
2023-06-18T11:42:38.042Z,41.95
2023-06-18T11:45:06.192Z,41.43
2023-06-18T11:47:35.593Z,41.93
2023-06-18T11:50:02.837Z,41.18
2023-06-18T11:52:30.623Z,41.33
2023-06-18T11:55:06.491Z,41.73
2023-06-18T11:57:33.310Z,41.50
2023-06-18T12:00:00.496Z,40.99
2023-06-18T12:02:30.313Z,41.38
2023-06-18T12:05:03.897Z,41.62
2023-06-18T12:07:31.127Z,42.94
2023-06-18T12:10:00.731Z,41.85
2023-06-18T12:13:05.296Z,41.14
2023-06-18T12:15:34.440Z,42.18
2023-06-18T12:18:12.838Z,42.29
2023-06-18T12:20:39.625Z,42.95
2023-06-18T12:23:06.462Z,42.12
2023-06-18T12:25:33.358Z,41.73
2023-06-18T12:28:05.075Z,41.92
2023-06-18T12:30:40.528Z,41.50
2023-06-18T12:33:14.889Z,42.08
2023-06-18T12:35:49.680Z,42.61
2023-06-18T12:38:16.219Z,42.22
2023-06-18T12:40:51.109Z,41.84
2023-06-18T12:43:20.044Z,41.57
2023-06-18T12:45:50.988Z,40.94
2023-06-18T12:48:21.936Z,40.89
2023-06-18T12:50:49.852Z,41.95
2023-06-18T12:53:25.650Z,42.20
2023-06-18T12:56:00.775Z,40.57
2023-06-18T12:58:29.748Z,39.73
2023-06-18T13:00:59.586Z,39.97
2023-06-18T13:03:28.296Z,40.18
2023-06-18T13:05:57.534Z,41.34
2023-06-18T13:08:24.095Z,40.50
2023-06-18T13:10:52.344Z,41.28
2023-06-18T13:13:20.126Z,41.89
2023-06-18T13:15:48.828Z,44.41
2023-06-18T13:18:18.165Z,44.73
2023-06-18T13:20:45.971Z,42.92
2023-06-18T13:23:12.740Z,42.75
2023-06-18T13:25:41.067Z,41.92
2023-06-18T13:28:07.841Z,42.99
2023-06-18T13:30:34.418Z,46.00
2023-06-18T13:33:01.067Z,50.02
2023-06-18T13:35:28.077Z,50.80
2023-06-18T13:37:54.977Z,50.42
2023-06-18T13:40:22.219Z,50.86
2023-06-18T13:42:48.752Z,51.20
2023-06-18T13:45:15.285Z,51.61
2023-06-18T13:47:41.801Z,50.00
2023-06-18T13:50:08.564Z,50.19
2023-06-18T13:52:35.075Z,52.70
2023-06-18T13:55:01.610Z,54.44
2023-06-18T13:57:28.104Z,54.99
2023-06-18T13:59:54.588Z,56.21
2023-06-18T14:02:21.341Z,58.03
2023-06-18T14:04:48.040Z,56.38
2023-06-18T14:07:14.789Z,54.07
2023-06-18T14:09:41.910Z,54.99
2023-06-18T14:12:08.826Z,54.37
2023-06-18T14:14:35.265Z,54.61
2023-06-18T14:17:01.856Z,50.92
2023-06-18T14:19:28.322Z,48.63
2023-06-18T14:21:54.874Z,44.88
2023-06-18T14:24:21.683Z,44.30
2023-06-18T14:26:48.385Z,45.01
2023-06-18T14:29:15.029Z,43.72
2023-06-18T14:31:41.468Z,45.28
2023-06-18T14:34:10.049Z,47.74
2023-06-18T14:36:39.292Z,46.95
2023-06-18T14:39:07.158Z,44.56
2023-06-18T14:41:33.968Z,44.51
2023-06-18T14:44:00.761Z,43.39
2023-06-18T14:46:27.740Z,42.12
2023-06-18T14:48:54.228Z,44.11
2023-06-18T14:51:20.928Z,44.91
2023-06-18T14:53:52.158Z,42.49
2023-06-18T14:56:21.986Z,42.68
2023-06-18T14:58:48.450Z,42.57
2023-06-18T15:01:15.060Z,42.46
2023-06-18T15:03:41.728Z,43.20
2023-06-18T15:06:08.367Z,43.68
2023-06-18T15:08:35.285Z,42.51
2023-06-18T15:11:01.901Z,45.22
2023-06-18T15:13:28.385Z,46.11
2023-06-18T15:15:54.872Z,42.96
2023-06-18T15:18:22.521Z,40.91
2023-06-18T15:20:48.932Z,40.53
2023-06-18T15:23:15.598Z,40.44
2023-06-18T15:25:42.178Z,39.91
2023-06-18T15:28:08.677Z,39.83
2023-06-18T15:30:35.184Z,39.21
2023-06-18T15:33:01.708Z,38.79
2023-06-18T15:35:29.001Z,38.02
2023-06-18T15:38:00.985Z,38.18
2023-06-18T15:40:28.236Z,38.65
2023-06-18T15:42:54.758Z,37.79
2023-06-18T15:45:21.933Z,38.55
2023-06-18T15:47:48.877Z,39.27
2023-06-18T15:50:15.700Z,39.43
2023-06-18T15:52:42.114Z,38.54
2023-06-18T15:55:09.135Z,39.65
2023-06-18T15:57:35.837Z,40.34
2023-06-18T16:00:02.272Z,39.51
2023-06-18T16:02:35.480Z,39.97
2023-06-18T16:05:06.439Z,42.22
2023-06-18T16:07:35.637Z,42.67
2023-06-18T16:10:02.284Z,41.78
2023-06-18T16:12:29.509Z,39.72
2023-06-18T16:14:55.961Z,40.93
2023-06-18T16:17:23.172Z,40.79
2023-06-18T16:19:49.706Z,41.29
2023-06-18T16:22:16.124Z,41.79
2023-06-18T16:24:42.693Z,44.35
2023-06-18T16:27:09.196Z,44.52
2023-06-18T16:29:35.700Z,44.76
2023-06-18T16:32:02.385Z,44.44
2023-06-18T16:34:28.895Z,44.32
2023-06-18T16:36:55.469Z,44.99
2023-06-18T16:39:22.022Z,50.36
2023-06-18T16:41:48.481Z,49.55
2023-06-18T16:44:14.943Z,46.40
2023-06-18T16:46:41.641Z,49.02
2023-06-18T16:49:08.069Z,46.40
2023-06-18T16:51:37.265Z,44.93
2023-06-18T16:54:04.334Z,45.67
2023-06-18T16:56:31.578Z,48.50
2023-06-18T16:58:59.002Z,49.81
2023-06-18T17:01:26.586Z,50.68
2023-06-18T17:03:53.385Z,51.03
2023-06-18T17:06:20.033Z,51.77
2023-06-18T17:08:46.485Z,52.53
2023-06-18T17:11:15.759Z,52.54
2023-06-18T17:13:42.196Z,53.46
2023-06-18T17:16:09.123Z,53.92
2023-06-18T17:18:35.794Z,54.24
2023-06-18T17:21:02.760Z,54.20
2023-06-18T17:23:29.309Z,53.12
2023-06-18T17:25:55.733Z,52.94
2023-06-18T17:28:23.599Z,51.32
2023-06-18T17:30:50.366Z,50.16
2023-06-18T17:33:16.809Z,50.48
2023-06-18T17:35:43.378Z,51.47
2023-06-18T17:38:11.258Z,51.18
2023-06-18T17:40:37.879Z,52.53
2023-06-18T17:43:04.358Z,51.58
2023-06-18T17:45:30.762Z,50.82
2023-06-18T17:47:57.273Z,50.12
2023-06-18T17:50:23.836Z,50.69
2023-06-18T17:52:50.380Z,50.20
2023-06-18T17:55:16.876Z,50.66
2023-06-18T17:57:43.284Z,50.00
2023-06-18T18:00:10.064Z,50.32
2023-06-18T18:02:36.609Z,51.15
2023-06-18T18:05:03.576Z,50.87
2023-06-18T18:07:29.986Z,51.00
2023-06-18T18:09:56.470Z,51.33
2023-06-18T18:12:23.120Z,52.08
2023-06-18T18:14:49.547Z,51.83
2023-06-18T18:17:16.028Z,52.52
2023-06-18T18:19:42.498Z,52.22
2023-06-18T18:22:08.997Z,52.52
2023-06-18T18:24:35.500Z,52.89
2023-06-18T18:27:02.022Z,52.16
2023-06-18T18:29:28.496Z,53.66
2023-06-18T18:31:56.442Z,52.94
2023-06-18T18:34:22.857Z,52.94
2023-06-18T18:36:49.331Z,52.99
2023-06-18T18:39:16.484Z,53.43
2023-06-18T18:41:42.970Z,53.52
2023-06-18T18:44:09.457Z,53.16
2023-06-18T18:46:37.510Z,52.88
2023-06-18T18:49:04.357Z,53.79
2023-06-18T18:51:31.310Z,53.76
2023-06-18T18:53:57.713Z,53.65
2023-06-18T18:56:24.199Z,53.82
2023-06-18T18:58:50.737Z,55.02
2023-06-18T19:01:17.256Z,54.61
2023-06-18T19:03:43.755Z,54.73
2023-06-18T19:06:10.326Z,54.72
2023-06-18T19:08:37.325Z,55.14
2023-06-18T19:11:03.922Z,55.23
2023-06-18T19:13:30.350Z,55.34
2023-06-18T19:15:58.373Z,55.38
2023-06-18T19:18:25.249Z,55.32
2023-06-18T19:20:51.775Z,56.03
2023-06-18T19:23:18.219Z,56.30
2023-06-18T19:25:44.679Z,55.23
2023-06-18T19:28:11.185Z,55.12
2023-06-18T19:30:41.877Z,55.07
2023-06-18T19:33:09.617Z,55.42
2023-06-18T19:35:36.241Z,55.43
2023-06-18T19:38:02.711Z,55.06
2023-06-18T19:40:29.414Z,55.79
2023-06-18T19:42:55.879Z,55.43
2023-06-18T19:45:22.308Z,54.71
2023-06-18T19:47:48.918Z,54.88
2023-06-18T19:50:15.537Z,55.27
2023-06-18T19:52:42.061Z,54.84
2023-06-18T19:55:08.978Z,55.52
2023-06-18T19:57:35.473Z,55.33
2023-06-18T20:00:02.086Z,55.72
2023-06-18T20:02:39.657Z,55.95
2023-06-18T20:05:07.337Z,55.78
2023-06-18T20:07:33.870Z,56.28
2023-06-18T20:10:04.374Z,56.07
2023-06-18T20:12:31.091Z,55.97
2023-06-18T20:14:57.568Z,56.50
2023-06-18T20:17:25.288Z,56.28
2023-06-18T20:19:52.461Z,56.02
2023-06-18T20:22:19.180Z,55.81
2023-06-18T20:24:45.690Z,56.28
2023-06-18T20:27:12.760Z,56.46
2023-06-18T20:29:39.227Z,56.17
2023-06-18T20:32:07.206Z,56.65
2023-06-18T20:34:35.609Z,57.15
2023-06-18T20:37:02.075Z,57.50
2023-06-18T20:39:28.541Z,56.65
2023-06-18T20:41:55.062Z,56.47
2023-06-18T20:44:21.558Z,55.84
2023-06-18T20:46:48.099Z,55.24
2023-06-18T20:49:15.552Z,54.40
2023-06-18T20:51:42.477Z,54.26
2023-06-18T20:54:08.982Z,53.75
2023-06-18T20:56:35.473Z,53.79
2023-06-18T20:59:02.032Z,53.26
2023-06-18T21:01:32.373Z,54.02
2023-06-18T21:03:59.631Z,55.18
2023-06-18T21:06:26.274Z,56.10
2023-06-18T21:08:52.805Z,56.95
2023-06-18T21:11:23.216Z,57.98
2023-06-18T21:13:49.737Z,58.40
2023-06-18T21:16:16.861Z,57.70
2023-06-18T21:18:43.385Z,58.12
2023-06-18T21:21:09.990Z,57.92
2023-06-18T21:23:36.473Z,58.37
2023-06-18T21:26:03.054Z,59.57
2023-06-18T21:28:29.573Z,61.80
2023-06-18T21:30:56.062Z,60.01
2023-06-18T21:33:22.589Z,59.84
2023-06-18T21:35:49.109Z,60.36
2023-06-18T21:38:15.984Z,59.56
2023-06-18T21:40:42.442Z,59.67
2023-06-18T21:43:09.025Z,59.70
2023-06-18T21:45:35.510Z,59.46
2023-06-18T21:48:02.022Z,59.51
2023-06-18T21:50:28.624Z,59.47
2023-06-18T21:52:55.145Z,58.61
2023-06-18T21:55:21.759Z,59.31
2023-06-18T21:57:48.300Z,58.26
2023-06-18T22:00:15.034Z,57.77
2023-06-18T22:02:41.709Z,56.69
2023-06-18T22:05:08.411Z,56.80
2023-06-18T22:07:34.973Z,56.82
2023-06-18T22:10:01.966Z,56.71
2023-06-18T22:12:28.687Z,56.49
2023-06-18T22:14:55.214Z,56.44
2023-06-18T22:17:21.835Z,56.80
2023-06-18T22:19:48.370Z,56.97
2023-06-18T22:22:14.921Z,56.37
2023-06-18T22:24:41.513Z,56.11
2023-06-18T22:27:09.033Z,56.10
2023-06-18T22:29:35.501Z,56.01
2023-06-18T22:32:02.229Z,55.99
2023-06-18T22:34:40.575Z,55.77
2023-06-18T22:37:08.579Z,56.10
2023-06-18T22:39:35.053Z,56.04
2023-06-18T22:42:01.941Z,56.06
2023-06-18T22:44:28.416Z,56.01
2023-06-18T22:46:54.894Z,55.98
2023-06-18T22:49:21.430Z,56.00
2023-06-18T22:51:57.701Z,56.29
2023-06-18T22:54:25.771Z,56.10
2023-06-18T22:56:52.941Z,56.33
2023-06-18T22:59:20.062Z,56.47
2023-06-18T23:01:47.122Z,56.52
2023-06-18T23:04:13.835Z,55.92
2023-06-18T23:06:40.681Z,55.61
2023-06-18T23:09:07.120Z,55.71
2023-06-18T23:11:33.584Z,55.70
2023-06-18T23:14:00.104Z,55.80
2023-06-18T23:16:26.638Z,55.32
2023-06-18T23:18:53.137Z,55.58
2023-06-18T23:21:19.586Z,55.54
2023-06-18T23:23:46.074Z,55.25
2023-06-18T23:26:12.588Z,54.52
2023-06-18T23:28:39.043Z,55.87
2023-06-18T23:31:05.726Z,56.28
2023-06-18T23:33:32.620Z,56.19
2023-06-18T23:35:59.487Z,55.17
2023-06-18T23:38:26.060Z,55.15
2023-06-18T23:40:52.729Z,55.10
2023-06-18T23:43:20.389Z,54.92
2023-06-18T23:45:47.061Z,54.89
2023-06-18T23:48:13.565Z,54.89
2023-06-18T23:50:41.342Z,54.93
2023-06-18T23:53:08.071Z,54.46
2023-06-18T23:55:34.589Z,54.73
2023-06-18T23:58:02.728Z,54.60
